Time;durP1;ratioP1;P1;durP2;ratioP2;P2;SDS_P1;SDS_P2;PMS_P1;PMS_P2;Temp;Humidity;BMP_temperature;BMP_pressure;BME280_temperature;BME280_humidity;BME280_pressure;Samples;Min_cycle;Max_cycle;Signal;HPM_P1;HPM_P2
2022/09/16 00:01:39;;;;;;;24.98;16.10;;;10.60;75.60;;;;;;5027699;28;20060;-69
2022/09/16 00:04:05;;;;;;;23.52;16.08;;;10.70;75.50;;;;;;5017358;28;20061;-68
2022/09/16 00:06:30;;;;;;;21.10;13.00;;;10.70;75.60;;;;;;5011230;28;20065;-68
2022/09/16 00:08:59;;;;;;;14.93;10.30;;;10.80;75.60;;;;;;5018461;28;20025;-69
2022/09/16 00:11:26;;;;;;;22.45;13.75;;;10.80;75.60;;;;;;5022490;28;20048;-69
2022/09/16 00:13:51;;;;;;;21.05;14.27;;;10.80;75.50;;;;;;5009857;28;20113;-69
2022/09/16 00:16:20;;;;;;;18.83;13.70;;;10.80;75.50;;;;;;5006979;28;20074;-68
2022/09/16 00:18:47;;;;;;;15.95;10.68;;;10.80;75.50;;;;;;5008691;28;20322;-68
2022/09/16 00:21:12;;;;;;;24.05;15.02;;;10.90;75.60;;;;;;5006848;28;20382;-69
2022/09/16 00:23:38;;;;;;;20.95;13.75;;;10.90;75.50;;;;;;5001803;28;20042;-69
2022/09/16 00:26:04;;;;;;;24.02;15.10;;;10.90;75.50;;;;;;5012513;28;20038;-69
2022/09/16 00:28:30;;;;;;;22.98;15.40;;;10.90;75.50;;;;;;5012979;28;20033;-69
2022/09/16 00:31:01;;;;;;;17.30;11.18;;;10.90;75.50;;;;;;5014446;28;20034;-69
2022/09/16 00:33:27;;;;;;;20.80;14.63;;;11.00;75.50;;;;;;5013515;28;20033;-68
2022/09/16 00:36:15;;;;;;;21.67;14.80;;;11.00;75.60;;;;;;5020253;28;20065;-69
2022/09/16 00:38:41;;;;;;;25.48;16.17;;;11.00;75.50;;;;;;5013565;28;20026;-69
2022/09/16 00:41:13;;;;;;;28.10;15.85;;;11.20;75.70;;;;;;5012839;28;20063;-69
2022/09/16 00:43:58;;;;;;;21.40;13.48;;;11.20;75.60;;;;;;5017700;28;20615;-69
2022/09/16 00:46:49;;;;;;;25.40;15.75;;;11.10;75.50;;;;;;5016453;28;20095;-70
2022/09/16 00:49:21;;;;;;;15.40;12.23;;;11.10;75.50;;;;;;5011873;28;20076;-69
2022/09/16 00:51:49;;;;;;;29.83;16.90;;;11.20;75.50;;;;;;5011300;28;20028;-69
2022/09/16 00:54:17;;;;;;;26.67;17.90;;;11.20;75.50;;;;;;4996300;28;20026;-69
2022/09/16 00:56:46;;;;;;;26.67;17.25;;;11.20;75.40;;;;;;5024331;28;20036;-69
2022/09/16 00:59:20;;;;;;;18.67;13.48;;;11.10;75.40;;;;;;5019512;28;20085;-69
2022/09/16 01:01:47;;;;;;;20.92;13.93;;;11.00;75.20;;;;;;5019055;28;20037;-69
2022/09/16 01:04:24;;;;;;;16.85;11.90;;;11.10;75.40;;;;;;5012476;28;20156;-69
2022/09/16 01:06:52;;;;;;;24.38;15.63;;;11.00;75.30;;;;;;5009490;28;20466;-69
2022/09/16 01:09:22;;;;;;;20.00;14.38;;;11.00;75.40;;;;;;5011216;28;20029;-69
2022/09/16 01:11:48;;;;;;;24.77;15.63;;;11.00;75.30;;;;;;5021268;28;20030;-69
2022/09/16 01:17:35;;;;;;;14.63;11.25;;;10.80;75.30;;;;;;5013408;28;20033;-69
2022/09/16 01:20:38;;;;;;;28.88;18.75;;;10.70;75.30;;;;;;4997597;28;20045;-70
2022/09/16 01:23:22;;;;;;;23.67;15.48;;;10.70;75.30;;;;;;5015145;28;20065;-69
2022/09/16 01:26:08;;;;;;;14.27;9.80;;;10.70;75.30;;;;;;5013071;28;20435;-70
2022/09/16 01:28:34;;;;;;;21.30;14.90;;;10.50;75.50;;;;;;5016314;28;20095;-69
2022/09/16 01:30:59;;;;;;;22.92;14.82;;;10.50;75.50;;;;;;5017014;28;20034;-69
2022/09/16 01:33:48;;;;;;;25.88;16.27;;;10.50;75.40;;;;;;5006321;28;20030;-70
2022/09/16 01:36:39;;;;;;;28.92;17.83;;;10.40;75.30;;;;;;5023473;28;20307;-69
2022/09/16 01:39:26;;;;;;;31.20;16.50;;;10.50;75.40;;;;;;5023656;28;20030;-69
2022/09/16 01:42:11;;;;;;;18.67;13.70;;;10.50;75.40;;;;;;5014955;28;20034;-69
2022/09/16 01:44:42;;;;;;;20.35;13.82;;;10.50;75.10;;;;;;5012981;28;20412;-69
2022/09/16 01:47:21;;;;;;;22.90;15.18;;;10.60;75.10;;;;;;5011944;28;20152;-70
2022/09/16 01:50:18;;;;;;;28.13;17.92;;;10.70;75.20;;;;;;5022171;28;20045;-69
2022/09/16 01:53:14;;;;;;;20.73;13.82;;;10.60;75.30;;;;;;5020411;28;20022;-69
2022/09/16 01:55:54;;;;;;;13.32;9.80;;;10.30;75.40;;;;;;5015751;28;20382;-69
2022/09/16 01:58:32;;;;;;;16.67;11.63;;;10.20;75.10;;;;;;5021411;28;20053;-69
2022/09/16 02:01:05;;;;;;;20.75;14.98;;;10.30;75.20;;;;;;5019230;28;20029;-69
2022/09/16 02:03:37;;;;;;;17.33;12.98;;;10.20;75.20;;;;;;5019390;28;20318;-69
2022/09/16 02:06:10;;;;;;;21.13;12.80;;;10.30;75.10;;;;;;5030070;28;20096;-69
2022/09/16 02:08:52;;;;;;;14.25;11.57;;;10.40;75.10;;;;;;5018697;28;20029;-69
2022/09/16 02:11:19;;;;;;;16.50;12.13;;;10.50;75.20;;;;;;5003112;28;20109;-68
2022/09/16 02:14:04;;;;;;;21.02;15.52;;;10.40;75.30;;;;;;5015525;28;20037;-69
2022/09/16 02:16:45;;;;;;;21.00;13.70;;;10.50;75.10;;;;;;5020987;28;20044;-69
2022/09/16 02:19:17;;;;;;;22.13;14.15;;;10.60;75.00;;;;;;5016303;28;20399;-69
2022/09/16 02:21:44;;;;;;;20.23;16.05;;;10.70;75.00;;;;;;5007748;28;20037;-69
2022/09/16 02:24:18;;;;;;;28.75;17.98;;;10.80;75.10;;;;;;5017352;28;20022;-69
2022/09/16 02:26:54;;;;;;;20.83;15.05;;;10.80;75.20;;;;;;5011453;28;20445;-69
2022/09/16 02:29:25;;;;;;;14.80;12.15;;;10.70;75.30;;;;;;5019194;28;20318;-69
2022/09/16 02:31:57;;;;;;;18.75;12.95;;;10.50;75.10;;;;;;5013701;28;20100;-69
2022/09/16 02:34:33;;;;;;;23.27;15.38;;;10.50;75.10;;;;;;5022336;28;20022;-69
2022/09/16 02:37:07;;;;;;;18.38;12.98;;;10.50;75.20;;;;;;5016051;28;20109;-69
2022/09/16 02:39:37;;;;;;;23.10;14.70;;;10.60;74.80;;;;;;5015537;28;20442;-69
2022/09/16 02:42:06;;;;;;;20.83;14.65;;;10.80;75.00;;;;;;5015472;28;20125;-69
2022/09/16 02:44:39;;;;;;;18.60;14.05;;;10.90;75.00;;;;;;5015351;28;20104;-69
2022/09/16 02:47:16;;;;;;;18.10;12.88;;;11.00;75.00;;;;;;5009847;28;20381;-69
2022/09/16 02:49:56;;;;;;;20.30;14.32;;;11.00;75.00;;;;;;5015487;28;20050;-70
2022/09/16 02:52:48;;;;;;;23.77;14.68;;;11.00;75.10;;;;;;5022003;28;20029;-70
2022/09/16 02:55:36;;;;;;;28.20;18.13;;;10.80;75.60;;;;;;5009514;28;20018;-70
2022/09/16 02:58:03;;;;;;;22.45;15.02;;;10.60;75.60;;;;;;4995404;28;20030;-70
2022/09/16 03:00:35;;;;;;;29.35;17.85;;;10.50;75.30;;;;;;5018595;28;20457;-70
2022/09/16 03:03:02;;;;;;;16.08;12.73;;;10.50;75.20;;;;;;5023226;28;20132;-69
2022/09/16 03:05:29;;;;;;;21.08;14.05;;;10.70;74.80;;;;;;5030050;28;20096;-69
2022/09/16 03:07:55;;;;;;;23.02;15.38;;;10.80;75.00;;;;;;5018298;28;20061;-70
2022/09/16 03:10:28;;;;;;;24.52;15.68;;;10.70;75.30;;;;;;5010982;28;20044;-69
2022/09/16 03:13:20;;;;;;;26.67;15.63;;;10.50;75.30;;;;;;5010884;28;20041;-69
2022/09/16 03:16:34;;;;;;;23.95;16.48;;;10.60;74.90;;;;;;5016815;28;20030;-70
2022/09/16 03:19:20;;;;;;;26.17;17.92;;;10.70;74.90;;;;;;4980836;28;20445;-70
2022/09/16 03:21:51;;;;;;;30.42;17.45;;;10.60;75.10;;;;;;5010779;28;20057;-69
2022/09/16 03:24:41;;;;;;;24.08;15.90;;;10.60;75.00;;;;;;5011275;28;20030;-69
2022/09/16 03:27:14;;;;;;;29.38;17.88;;;10.70;74.90;;;;;;5021519;28;20021;-69
2022/09/16 03:29:42;;;;;;;17.02;12.50;;;10.70;75.00;;;;;;5015911;28;20018;-69
2022/09/16 03:32:20;;;;;;;25.88;15.48;;;10.70;75.00;;;;;;5012663;28;20033;-69
2022/09/16 03:34:53;;;;;;;26.05;16.17;;;10.60;75.00;;;;;;5028785;28;20018;-69
2022/09/16 03:37:24;;;;;;;18.13;14.00;;;10.60;75.00;;;;;;5014254;28;20327;-69
2022/09/16 03:39:56;;;;;;;17.02;12.00;;;10.70;74.90;;;;;;5012579;28;20294;-69
2022/09/16 03:42:23;;;;;;;24.13;15.73;;;10.80;75.00;;;;;;4996275;28;20036;-69
2022/09/16 03:44:48;;;;;;;28.27;17.73;;;10.80;75.00;;;;;;5004707;28;20030;-69
2022/09/16 03:47:17;;;;;;;17.60;12.10;;;10.80;75.00;;;;;;5012424;28;20037;-68
2022/09/16 03:49:43;;;;;;;20.38;14.82;;;10.90;74.90;;;;;;5013325;28;20057;-69
2022/09/16 03:52:08;;;;;;;24.95;15.52;;;11.00;75.00;;;;;;5010031;28;20037;-69
2022/09/16 03:54:36;;;;;;;23.00;15.60;;;11.10;75.00;;;;;;5007897;28;20029;-68
2022/09/16 03:57:02;;;;;;;16.02;12.00;;;11.10;75.10;;;;;;5018256;28;20025;-69
2022/09/16 03:59:28;;;;;;;16.73;13.07;;;11.20;75.00;;;;;;5015982;28;20137;-69
2022/09/16 04:01:56;;;;;;;23.55;16.35;;;11.20;75.00;;;;;;5014965;28;20038;-69
2022/09/16 04:04:22;;;;;;;21.65;15.38;;;11.30;75.00;;;;;;5023145;28;20036;-69
2022/09/16 04:06:47;;;;;;;15.52;11.77;;;11.20;75.00;;;;;;5030550;28;20307;-69
2022/09/16 04:09:14;;;;;;;20.67;14.95;;;11.20;75.00;;;;;;4994034;28;20033;-70
2022/09/16 04:11:40;;;;;;;23.30;15.00;;;11.20;75.00;;;;;;4994075;28;20029;-69
2022/09/16 04:14:10;;;;;;;14.43;11.27;;;11.20;74.90;;;;;;5013863;28;20030;-69
2022/09/16 04:16:39;;;;;;;31.58;17.92;;;11.20;74.90;;;;;;5019756;28;20029;-70
2022/09/16 04:19:05;;;;;;;24.65;15.52;;;11.20;75.00;;;;;;5015473;28;20057;-70
2022/09/16 04:21:32;;;;;;;24.10;15.52;;;11.20;75.00;;;;;;5006946;28;20030;-69
2022/09/16 04:23:57;;;;;;;21.60;14.75;;;11.20;75.00;;;;;;5012078;28;20036;-69
2022/09/16 04:26:25;;;;;;;19.50;12.95;;;11.20;75.00;;;;;;5013551;28;20033;-69
2022/09/16 04:28:53;;;;;;;20.67;15.70;;;11.30;74.90;;;;;;5016583;28;20053;-69
2022/09/16 04:31:19;;;;;;;33.05;20.02;;;11.40;75.00;;;;;;5013135;28;20018;-70
2022/09/16 04:33:44;;;;;;;20.95;15.32;;;11.40;75.00;;;;;;5025310;28;20124;-69
2022/09/16 04:36:12;;;;;;;19.23;12.63;;;11.30;74.90;;;;;;5012752;28;20101;-70
2022/09/16 04:38:40;;;;;;;26.98;17.38;;;11.30;74.90;;;;;;5024125;28;20033;-69
2022/09/16 04:41:09;;;;;;;28.77;17.85;;;11.30;74.90;;;;;;5010587;28;20083;-69
2022/09/16 04:43:35;;;;;;;21.65;14.70;;;11.20;75.00;;;;;;5013365;28;20080;-69
2022/09/16 04:46:01;;;;;;;27.10;16.15;;;11.20;75.00;;;;;;5021548;28;20025;-69
2022/09/16 04:48:27;;;;;;;17.38;12.75;;;11.20;75.00;;;;;;5028159;28;20049;-69
2022/09/16 04:50:52;;;;;;;14.60;11.93;;;11.20;74.90;;;;;;5017601;28;20437;-70
2022/09/16 04:53:19;;;;;;;22.63;14.80;;;11.30;74.90;;;;;;5017554;28;20034;-69
2022/09/16 04:55:45;;;;;;;27.75;16.65;;;11.40;75.00;;;;;;5016994;28;20053;-69
2022/09/16 04:58:11;;;;;;;23.30;15.05;;;11.30;74.90;;;;;;5029490;28;20026;-69
2022/09/16 05:00:37;;;;;;;18.40;12.07;;;11.30;74.90;;;;;;5005388;28;20018;-70
2022/09/16 05:03:03;;;;;;;19.08;14.00;;;11.30;74.90;;;;;;5030277;28;20033;-69
2022/09/16 05:05:28;;;;;;;32.00;18.75;;;11.20;75.00;;;;;;5039399;28;20064;-69
2022/09/16 05:07:56;;;;;;;22.48;14.60;;;11.20;74.90;;;;;;5029497;28;20029;-69
2022/09/16 05:10:22;;;;;;;17.13;13.43;;;11.20;74.90;;;;;;5023350;28;20035;-69
2022/09/16 05:12:51;;;;;;;19.45;15.10;;;11.30;74.90;;;;;;5025737;28;20091;-69
2022/09/16 05:15:17;;;;;;;30.90;20.50;;;11.30;75.00;;;;;;5017120;28;20071;-70
2022/09/16 05:17:44;;;;;;;16.55;12.40;;;11.20;75.00;;;;;;4986342;28;20038;-69
2022/09/16 05:20:10;;;;;;;21.63;15.48;;;11.20;74.90;;;;;;4999908;28;20366;-69
2022/09/16 05:22:35;;;;;;;23.25;15.05;;;11.20;74.90;;;;;;4999785;28;20084;-69
2022/09/16 05:25:02;;;;;;;21.90;13.65;;;11.20;74.90;;;;;;5016728;28;20060;-69
2022/09/16 05:27:31;;;;;;;31.02;18.05;;;11.30;74.90;;;;;;5019417;28;20538;-69
2022/09/16 05:30:00;;;;;;;18.85;13.05;;;11.30;74.90;;;;;;5018756;28;20124;-69
2022/09/16 05:32:26;;;;;;;33.40;18.02;;;11.40;74.90;;;;;;5012575;28;20030;-68
2022/09/16 05:34:52;;;;;;;21.05;13.95;;;11.60;75.00;;;;;;5015826;28;20030;-69
2022/09/16 05:37:20;;;;;;;17.88;12.23;;;11.60;75.00;;;;;;4998644;28;20022;-68
2022/09/16 05:39:46;;;;;;;22.25;15.07;;;11.60;74.90;;;;;;5015037;28;20037;-69
2022/09/16 05:42:11;;;;;;;23.70;16.23;;;11.60;74.90;;;;;;5018853;28;20342;-68
2022/09/16 05:44:37;;;;;;;24.33;16.02;;;11.70;74.90;;;;;;5018956;28;20036;-68
2022/09/16 05:47:03;;;;;;;21.70;15.27;;;11.70;74.90;;;;;;5018973;28;20038;-69
2022/09/16 05:49:28;;;;;;;18.98;14.07;;;11.70;74.80;;;;;;5033188;28;20058;-71
2022/09/16 05:51:54;;;;;;;21.52;14.05;;;11.70;74.70;;;;;;5016308;28;20030;-69
2022/09/16 05:54:22;;;;;;;19.13;15.25;;;11.80;74.70;;;;;;4997798;28;20387;-70
2022/09/16 05:56:51;;;;;;;18.77;14.30;;;11.80;74.90;;;;;;5016937;28;20473;-71
2022/09/16 05:59:17;;;;;;;18.85;14.23;;;11.90;74.90;;;;;;5018517;28;20130;-70
2022/09/16 06:01:43;;;;;;;23.17;15.60;;;11.90;74.70;;;;;;5024287;28;20034;-70
2022/09/16 06:04:11;;;;;;;34.40;22.20;;;12.00;74.80;;;;;;5022493;28;20108;-70
2022/09/16 06:06:40;;;;;;;23.95;17.83;;;12.10;74.80;;;;;;5034407;28;20025;-71
2022/09/16 06:09:11;;;;;;;21.77;14.95;;;12.00;74.80;;;;;;5028709;28;20105;-71
2022/09/16 06:11:39;;;;;;;18.08;13.52;;;12.00;74.80;;;;;;5016203;28;20018;-71
2022/09/16 06:14:05;;;;;;;19.25;13.77;;;12.10;74.70;;;;;;5016100;28;20026;-72
2022/09/16 06:16:31;;;;;;;17.88;14.18;;;12.20;74.80;;;;;;5016170;28;20030;-71
2022/09/16 06:19:01;;;;;;;20.60;14.35;;;12.20;74.80;;;;;;5017097;28;20127;-72
2022/09/16 06:21:28;;;;;;;25.85;18.13;;;12.20;74.70;;;;;;5000612;28;20037;-72
2022/09/16 06:23:54;;;;;;;37.10;20.92;;;12.20;74.80;;;;;;5031143;28;20033;-72
2022/09/16 06:26:23;;;;;;;18.17;14.13;;;12.10;74.70;;;;;;5029861;28;20038;-72
2022/09/16 06:28:50;;;;;;;33.17;22.25;;;12.00;74.60;;;;;;5014201;28;20029;-71
2022/09/16 06:31:18;;;;;;;38.17;22.02;;;12.00;74.70;;;;;;5016825;28;20100;-71
2022/09/16 06:33:44;;;;;;;35.25;21.63;;;11.90;74.70;;;;;;5016881;28;20125;-71
2022/09/16 06:36:16;;;;;;;34.65;21.30;;;11.80;74.60;;;;;;5029861;28;20124;-71
2022/09/16 06:38:45;;;;;;;32.85;20.80;;;11.80;74.60;;;;;;5024572;28;20358;-71
2022/09/16 06:41:11;;;;;;;25.05;18.20;;;11.80;74.60;;;;;;4995585;28;21738;-70
2022/09/16 06:43:38;;;;;;;42.20;27.40;;;11.90;74.70;;;;;;5011790;28;20033;-71
2022/09/16 06:46:12;;;;;;;28.48;20.30;;;11.90;74.70;;;;;;5014259;28;20042;-70
2022/09/16 06:48:39;;;;;;;35.50;23.83;;;11.80;74.60;;;;;;4976223;28;1156381;-70
2022/09/16 06:51:08;;;;;;;15.32;11.27;;;11.80;74.70;;;;;;5007955;28;20025;-70
2022/09/16 06:53:34;;;;;;;24.40;11.20;;;11.60;76.00;;;;;;5001458;28;20069;-71
2022/09/16 06:56:02;;;;;;;17.25;11.57;;;11.00;78.70;;;;;;4993904;28;20933;-71
2022/09/16 06:58:31;;;;;;;16.45;11.57;;;10.80;78.90;;;;;;4995221;28;20034;-70
2022/09/16 07:00:56;;;;;;;17.20;11.25;;;10.70;78.30;;;;;;4990392;28;20022;-72
2022/09/16 07:03:22;;;;;;;19.25;11.63;;;10.70;78.00;;;;;;5015751;28;20041;-73
2022/09/16 07:06:00;;;;;;;22.25;14.10;;;10.70;78.80;;;;;;5024645;28;20021;-72
2022/09/16 07:08:28;;;;;;;25.42;14.57;;;10.70;79.90;;;;;;5013780;28;20030;-73
2022/09/16 07:11:09;;;;;;;21.83;13.68;;;10.50;81.40;;;;;;4996469;28;20124;-74
2022/09/16 07:13:37;;;;;;;17.30;11.25;;;10.50;79.40;;;;;;5012029;28;20026;-74
2022/09/16 07:16:10;;;;;;;13.30;8.88;;;10.50;79.90;;;;;;5013106;28;20062;-73
2022/09/16 07:18:36;;;;;;;21.15;11.20;;;10.40;80.00;;;;;;5030685;28;20021;-73
2022/09/16 07:21:13;;;;;;;13.35;10.30;;;10.30;80.00;;;;;;5036839;28;20064;-73
2022/09/16 07:23:40;;;;;;;15.25;10.40;;;10.30;80.50;;;;;;5036905;28;20052;-73
2022/09/16 07:26:14;;;;;;;13.63;9.90;;;10.20;81.20;;;;;;5018289;28;20528;-73
2022/09/16 07:28:42;;;;;;;13.15;8.30;;;10.20;82.40;;;;;;5022293;28;20034;-73
2022/09/16 07:31:10;;;;;;;12.52;7.72;;;10.20;82.50;;;;;;5017009;28;20355;-74
2022/09/16 07:33:46;;;;;;;12.38;8.18;;;10.20;82.60;;;;;;5027097;28;20030;-73
2022/09/16 07:36:16;;;;;;;19.23;10.10;;;10.20;81.60;;;;;;5019325;28;20017;-73
2022/09/16 07:38:42;;;;;;;14.25;10.30;;;10.20;81.60;;;;;;5018479;28;20026;-73
2022/09/16 07:41:20;;;;;;;18.55;10.25;;;10.20;81.60;;;;;;5014548;28;20072;-73
2022/09/16 07:43:46;;;;;;;13.68;7.95;;;10.30;80.90;;;;;;5016829;28;20034;-73
2022/09/16 07:46:15;;;;;;;10.18;7.53;;;10.20;82.30;;;;;;5018749;28;20074;-73
2022/09/16 07:48:42;;;;;;;10.98;7.20;;;10.20;82.30;;;;;;5027996;28;20330;-72
2022/09/16 07:51:17;;;;;;;12.25;9.30;;;10.10;83.00;;;;;;5013521;28;20030;-73
2022/09/16 07:53:43;;;;;;;14.77;10.15;;;10.20;82.90;;;;;;5006085;28;20125;-73
2022/09/16 07:56:15;;;;;;;18.58;11.77;;;10.20;82.20;;;;;;5027416;28;20296;-73
2022/09/16 07:58:43;;;;;;;16.13;11.10;;;10.30;81.80;;;;;;5030859;28;20033;-73
2022/09/16 08:01:09;;;;;;;17.52;10.48;;;10.30;81.40;;;;;;5015185;28;20022;-73
2022/09/16 08:03:37;;;;;;;12.85;7.28;;;10.20;82.60;;;;;;5016427;28;20318;-73
2022/09/16 08:06:05;;;;;;;13.10;9.55;;;10.10;83.20;;;;;;5014846;28;20042;-73
2022/09/16 08:08:32;;;;;;;17.17;9.90;;;10.00;83.30;;;;;;5016521;28;20318;-73
2022/09/16 08:10:58;;;;;;;10.13;6.78;;;10.00;81.10;;;;;;5017802;28;20026;-73
2022/09/16 08:13:25;;;;;;;9.52;6.38;;;10.20;79.90;;;;;;5000064;28;20026;-73
2022/09/16 08:15:52;;;;;;;15.80;7.97;;;10.30;82.20;;;;;;5026091;28;20028;-72
2022/09/16 08:18:18;;;;;;;12.90;9.13;;;10.30;81.60;;;;;;5029990;28;20037;-74
2022/09/16 08:20:43;;;;;;;17.67;9.88;;;10.20;82.70;;;;;;5015308;28;20088;-74
2022/09/16 08:23:09;;;;;;;13.98;9.85;;;10.10;83.00;;;;;;5015859;28;20393;-72
2022/09/16 08:25:35;;;;;;;17.55;10.43;;;10.10;83.00;;;;;;5015576;28;20034;-73
2022/09/16 08:28:02;;;;;;;24.33;13.18;;;10.10;82.50;;;;;;5009255;28;20037;-73
2022/09/16 08:30:27;;;;;;;22.48;12.73;;;10.10;81.80;;;;;;5014604;28;20108;-73
2022/09/16 08:32:57;;;;;;;16.35;11.88;;;10.10;80.90;;;;;;5015942;28;20109;-73
2022/09/16 08:35:24;;;;;;;19.27;10.13;;;10.20;79.90;;;;;;4991695;28;20418;-73
2022/09/16 08:37:50;;;;;;;15.43;10.45;;;10.20;81.30;;;;;;5031359;28;20025;-72
2022/09/16 08:40:21;;;;;;;9.93;7.60;;;10.20;81.10;;;;;;5012729;28;20053;-72
2022/09/16 08:43:35;;;;;;;14.27;9.85;;;10.20;82.10;;;;;;5019996;28;20044;-72
2022/09/16 08:46:30;;;;;;;20.73;14.30;;;10.10;82.90;;;;;;5001832;28;20136;-72
2022/09/16 08:49:18;;;;;;;21.23;12.40;;;10.10;82.40;;;;;;5014837;28;20403;-73
2022/09/16 08:51:45;;;;;;;15.70;11.63;;;10.20;80.40;;;;;;5014895;28;20053;-73
2022/09/16 08:54:24;;;;;;;12.05;8.77;;;10.40;79.00;;;;;;5015880;28;20028;-74
2022/09/16 08:56:51;;;;;;;15.20;8.73;;;10.50;80.70;;;;;;5029068;28;20418;-73
2022/09/16 08:59:23;;;;;;;9.38;6.22;;;10.60;80.80;;;;;;5034985;28;20036;-73
2022/09/16 09:02:09;;;;;;;9.18;6.53;;;10.60;81.60;;;;;;5016455;28;20018;-73
2022/09/16 09:04:35;;;;;;;10.88;7.70;;;10.70;82.50;;;;;;5035532;28;20377;-73
2022/09/16 09:07:36;;;;;;;11.50;7.05;;;10.70;82.70;;;;;;5030401;28;20154;-73
2022/09/16 09:10:23;;;;;;;11.20;7.10;;;10.90;82.60;;;;;;5006599;28;20153;-73
2022/09/16 09:12:52;;;;;;;9.90;6.85;;;11.00;82.40;;;;;;5022708;28;20140;-73
2022/09/16 09:15:45;;;;;;;8.02;4.72;;;11.30;81.80;;;;;;5035470;28;20322;-73
2022/09/16 09:18:10;;;;;;;6.70;4.97;;;11.30;86.40;;;;;;5022172;28;20049;-73
2022/09/16 09:20:46;;;;;;;7.72;5.57;;;11.30;85.10;;;;;;5015789;28;20415;-73
2022/09/16 09:23:33;;;;;;;7.70;4.95;;;11.60;84.50;;;;;;5025062;28;20041;-73
2022/09/16 09:26:24;;;;;;;6.63;4.40;;;12.20;81.50;;;;;;5014418;28;20026;-73
2022/09/16 09:29:08;;;;;;;5.65;3.03;;;13.10;83.40;;;;;;4998298;28;20121;-73
2022/09/16 09:31:33;;;;;;;5.57;3.00;;;13.20;93.60;;;;;;5015508;28;20076;-73
2022/09/16 09:34:05;;;;;;;4.25;2.50;;;13.00;95.10;;;;;;5025308;28;20034;-73
2022/09/16 09:36:39;;;;;;;4.95;2.92;;;13.00;95.60;;;;;;5017092;28;20029;-72
2022/09/16 09:39:57;;;;;;;4.32;2.50;;;12.90;95.30;;;;;;5014342;28;20022;-72
2022/09/16 09:42:28;;;;;;;6.35;4.40;;;12.80;97.20;;;;;;4955526;29;20471;-72
2022/09/16 09:44:56;;;;;;;5.85;4.40;;;12.40;96.20;;;;;;4996167;28;20050;-71
2022/09/16 09:47:41;;;;;;;7.55;4.00;;;12.00;98.00;;;;;;5003407;28;20459;-71
2022/09/16 09:50:29;;;;;;;6.43;3.90;;;11.80;97.30;;;;;;5038485;28;20056;-71
2022/09/16 09:53:10;;;;;;;7.13;4.28;;;11.60;96.00;;;;;;5036223;28;20029;-72
2022/09/16 09:55:38;;;;;;;7.65;5.00;;;11.50;95.20;;;;;;5017535;28;20037;-72
2022/09/16 09:58:27;;;;;;;6.22;3.83;;;11.40;95.00;;;;;;5020901;28;20029;-71
2022/09/16 10:00:56;;;;;;;7.75;5.60;;;11.30;95.30;;;;;;5017671;28;20030;-72
2022/09/16 10:03:27;;;;;;;6.82;4.43;;;11.30;94.20;;;;;;5017742;28;20026;-71
2022/09/16 10:05:52;;;;;;;6.05;3.95;;;11.50;93.70;;;;;;5018843;28;20034;-72
2022/09/16 10:08:21;;;;;;;7.10;3.88;;;11.90;93.30;;;;;;5017084;28;20326;-71
2022/09/16 10:10:52;;;;;;;5.10;3.47;;;12.20;97.20;;;;;;5017441;28;20033;-71
2022/09/16 10:13:20;;;;;;;4.60;3.17;;;12.70;98.00;;;;;;5029709;28;20044;-71
2022/09/16 10:15:49;;;;;;;5.28;2.92;;;13.50;98.00;;;;;;5016802;28;20033;-70
2022/09/16 10:18:31;;;;;;;6.15;3.15;;;14.20;98.00;;;;;;5016282;28;20030;-71
2022/09/16 10:21:09;;;;;;;8.88;6.30;;;14.20;98.00;;;;;;5021323;28;20025;-71
2022/09/16 10:23:37;;;;;;;7.28;4.40;;;13.80;98.00;;;;;;5015681;28;20034;-70
2022/09/16 10:26:29;;;;;;;6.63;4.20;;;13.50;98.00;;;;;;5016273;28;20054;-70
2022/09/16 10:29:00;;;;;;;26.80;16.95;;;13.00;98.00;;;;;;5018105;28;20326;-70
2022/09/16 10:31:35;;;;;;;8.40;5.32;;;12.80;98.00;;;;;;5015472;28;20080;-70
2022/09/16 10:34:15;;;;;;;8.98;5.93;;;12.60;98.00;;;;;;5019991;28;20056;-70
2022/09/16 10:36:41;;;;;;;7.97;4.78;;;12.70;98.00;;;;;;5035165;28;20111;-70
2022/09/16 10:39:24;;;;;;;8.82;5.95;;;12.60;98.00;;;;;;5037711;28;20026;-70
2022/09/16 10:41:51;;;;;;;10.70;7.13;;;12.40;98.00;;;;;;5031886;28;20026;-70
2022/09/16 10:44:29;;;;;;;10.48;7.28;;;12.30;97.40;;;;;;5017904;28;20022;-69
2022/09/16 10:47:00;;;;;;;15.43;7.90;;;12.20;97.30;;;;;;5018069;28;20302;-70
2022/09/16 10:50:00;;;;;;;12.45;8.82;;;12.10;96.80;;;;;;5034222;28;20329;-70
2022/09/16 10:52:31;;;;;;;12.35;6.88;;;11.80;96.00;;;;;;5024539;28;20635;-70
2022/09/16 10:55:19;;;;;;;11.80;8.00;;;11.70;94.40;;;;;;5016494;28;20090;-70
2022/09/16 10:57:50;;;;;;;12.55;8.73;;;11.80;94.30;;;;;;5014890;28;20075;-70
2022/09/16 11:00:23;;;;;;;11.30;7.82;;;11.70;94.20;;;;;;5017560;28;20292;-70
2022/09/16 11:03:24;;;;;;;13.80;10.52;;;11.70;93.40;;;;;;5015692;28;20105;-69
2022/09/16 11:05:59;;;;;;;15.65;10.73;;;11.60;92.40;;;;;;5032979;28;20040;-70
2022/09/16 11:08:33;;;;;;;23.23;14.30;;;11.60;92.20;;;;;;5014222;28;20108;-69
2022/09/16 11:11:23;;;;;;;16.02;12.38;;;11.50;91.60;;;;;;5013843;28;20064;-69
2022/09/16 11:14:01;;;;;;;11.90;8.20;;;11.40;91.40;;;;;;5016216;28;20036;-69
2022/09/16 11:16:30;;;;;;;11.38;9.00;;;11.40;91.60;;;;;;5016155;28;20104;-70
2022/09/16 11:19:30;;;;;;;14.88;9.88;;;11.50;91.40;;;;;;5017325;28;20026;-69
2022/09/16 11:22:29;;;;;;;16.90;11.65;;;11.60;93.10;;;;;;5035280;28;20030;-69
2022/09/16 11:25:17;;;;;;;12.23;8.77;;;11.60;92.70;;;;;;5014926;28;20112;-69
2022/09/16 11:28:14;;;;;;;10.65;8.00;;;11.70;91.80;;;;;;5030694;28;20104;-69
2022/09/16 11:31:04;;;;;;;11.55;7.15;;;11.80;93.80;;;;;;5014950;28;20366;-69
2022/09/16 11:33:44;;;;;;;11.15;7.28;;;11.70;94.20;;;;;;5016727;28;20073;-69
2022/09/16 11:36:23;;;;;;;9.95;6.20;;;11.80;94.80;;;;;;5029817;28;20026;-69
2022/09/16 11:38:55;;;;;;;9.40;5.72;;;12.10;93.00;;;;;;5036699;28;20024;-69
2022/09/16 11:41:31;;;;;;;7.32;4.65;;;12.90;96.40;;;;;;5017848;28;20444;-69
2022/09/16 11:44:29;;;;;;;11.00;4.88;;;13.70;98.00;;;;;;5015820;28;20045;-69
2022/09/16 11:47:22;;;;;;;5.68;3.88;;;14.00;98.00;;;;;;5035409;28;20414;-70
2022/09/16 11:50:06;;;;;;;8.25;4.97;;;14.40;98.00;;;;;;5031199;28;20057;-69
2022/09/16 11:53:00;;;;;;;9.80;4.97;;;14.50;98.00;;;;;;5015743;28;20034;-69
2022/09/16 11:55:29;;;;;;;;;;;14.40;98.00;;;;;;4991399;28;20035;-69
2022/09/16 11:57:59;;;;;;;8.93;5.32;;;14.60;98.00;;;;;;5002820;28;19924;-69
2022/09/16 12:00:25;;;;;;;6.97;4.05;;;14.90;98.00;;;;;;5015048;28;20054;-70
2022/09/16 12:03:26;;;;;;;6.88;4.65;;;15.10;98.00;;;;;;5015813;28;20535;-70
2022/09/16 12:06:02;;;;;;;16.92;5.45;;;15.40;98.00;;;;;;5023034;28;20045;-69
2022/09/16 12:08:36;;;;;;;9.77;5.00;;;15.20;98.00;;;;;;5013355;28;20069;-69
2022/09/16 12:11:02;;;;;;;;;;;14.90;98.00;;;;;;5028378;28;20075;-69
2022/09/16 12:13:40;;;;;;;8.63;4.38;;;14.40;98.00;;;;;;5025212;28;20242;-69
2022/09/16 12:16:13;;;;;;;6.80;4.07;;;14.20;98.00;;;;;;5035841;28;20022;-69
2022/09/16 12:18:47;;;;;;;8.50;4.57;;;14.10;98.00;;;;;;5015550;28;20109;-69
2022/09/16 12:21:58;;;;;;;7.70;4.18;;;14.50;98.00;;;;;;5015544;28;20025;-69
2022/09/16 12:24:35;;;;;;;6.53;3.97;;;15.30;98.00;;;;;;5014867;28;20022;-70
2022/09/16 12:27:16;;;;;;;7.22;4.70;;;15.90;96.80;;;;;;5016261;28;20021;-69
2022/09/16 12:29:58;;;;;;;6.90;4.18;;;15.50;96.50;;;;;;5017934;28;20045;-69
2022/09/16 12:32:55;;;;;;;8.23;3.95;;;15.00;98.00;;;;;;5022435;28;20083;-69
2022/09/16 12:35:37;;;;;;;7.07;3.97;;;14.70;97.70;;;;;;5035913;28;20025;-69
2022/09/16 12:38:03;;;;;;;5.18;3.00;;;14.80;98.00;;;;;;5018373;28;20037;-69
2022/09/16 12:41:07;;;;;;;7.40;3.40;;;15.20;96.60;;;;;;5030146;28;20322;-69
2022/09/16 12:43:51;;;;;;;5.35;3.40;;;15.20;97.30;;;;;;5013090;28;20030;-69
2022/09/16 12:46:32;;;;;;;7.05;3.47;;;15.10;96.20;;;;;;4999312;28;20108;-69
2022/09/16 12:49:36;;;;;;;8.23;4.03;;;15.00;97.70;;;;;;5015213;28;20046;-71
2022/09/16 12:52:26;;;;;;;5.70;3.60;;;14.90;97.00;;;;;;5022490;28;20025;-71
2022/09/16 12:55:22;;;;;;;9.60;3.75;;;15.10;96.70;;;;;;5034537;28;20353;-70
2022/09/16 12:58:06;;;;;;;8.32;4.28;;;15.60;95.10;;;;;;5019351;28;20080;-70
2022/09/16 13:00:40;;;;;;;7.47;3.97;;;15.70;94.40;;;;;;5014981;28;20080;-70
2022/09/16 13:03:14;;;;;;;7.35;3.50;;;15.90;94.00;;;;;;5014448;28;20030;-69
2022/09/16 13:05:46;;;;;;;6.30;3.42;;;16.50;94.40;;;;;;5015964;28;20045;-69
2022/09/16 13:08:28;;;;;;;9.63;2.80;;;16.70;92.80;;;;;;5012179;28;20030;-69
2022/09/16 13:11:00;;;;;;;10.10;3.50;;;16.30;89.00;;;;;;5015432;28;20028;-69